Time;durP1;ratioP1;P1;durP2;ratioP2;P2;SDS_P1;SDS_P2;PMS_P1;PMS_P2;Temp;Humidity;BMP_temperature;BMP_pressure;BME280_temperature;BME280_humidity;BME280_pressure;Samples;Min_cycle;Max_cycle;Signal;HPM_P1;HPM_P2
2022/03/30 00:00:43;;;;;;;5.90;5.03;;;;;;;;;;5062691;28;20247;-68
2022/03/30 00:03:11;;;;;;;5.03;4.53;;;;;;;;;;5063826;28;20194;-68
2022/03/30 00:05:39;;;;;;;5.47;4.97;;;;;;;;;;5077429;28;20852;-69
2022/03/30 00:08:06;;;;;;;5.50;4.70;;;;;;;;;;5066339;28;20190;-69
2022/03/30 00:10:34;;;;;;;6.77;4.90;;;;;;;;;;5063316;28;20670;-68
2022/03/30 00:13:01;;;;;;;5.40;4.90;;;;;;;;;;5063277;28;20194;-68
2022/03/30 00:15:30;;;;;;;5.97;4.70;;;;;;;;;;5067204;28;20198;-69
2022/03/30 00:17:57;;;;;;;5.30;4.80;;;;;;;;;;5066096;28;20209;-70
2022/03/30 00:20:24;;;;;;;5.10;4.60;;;;;;;;;;5064925;28;20194;-68
2022/03/30 00:22:52;;;;;;;5.17;4.60;;;;;;;;;;5064312;28;20225;-69
2022/03/30 00:25:20;;;;;;;5.07;4.40;;;;;;;;;;5068961;28;20784;-68
2022/03/30 00:27:48;;;;;;;5.67;4.50;;;;;;;;;;5066252;28;20201;-68
2022/03/30 00:30:16;;;;;;;5.67;5.00;;;;;;;;;;5052044;28;20181;-68
2022/03/30 00:32:43;;;;;;;5.37;4.50;;;;;;;;;;5070615;28;20209;-68
2022/03/30 00:35:11;;;;;;;5.53;4.63;;;;;;;;;;5065299;28;20541;-67
2022/03/30 00:37:39;;;;;;;5.13;4.63;;;;;;;;;;5071324;28;20216;-67
2022/03/30 00:40:07;;;;;;;5.53;4.47;;;;;;;;;;5069385;28;20202;-67
2022/03/30 00:42:34;;;;;;;5.20;4.20;;;;;;;;;;5069991;28;20206;-68
2022/03/30 00:45:08;;;;;;;7.53;4.67;;;;;;;;;;5069139;28;20189;-67
2022/03/30 00:47:36;;;;;;;6.93;4.83;;;;;;;;;;5069646;28;20274;-68
2022/03/30 00:50:04;;;;;;;5.90;4.97;;;;;;;;;;5068720;28;20202;-68
2022/03/30 00:52:31;;;;;;;6.30;4.77;;;;;;;;;;5069015;28;20205;-68
2022/03/30 00:54:59;;;;;;;6.50;4.67;;;;;;;;;;5051743;28;20190;-68
2022/03/30 00:57:28;;;;;;;5.17;4.60;;;;;;;;;;5065752;28;20225;-68
2022/03/30 00:59:56;;;;;;;5.00;4.50;;;;;;;;;;5069680;28;20197;-67
2022/03/30 01:02:23;;;;;;;5.10;4.27;;;;;;;;;;5069252;28;20277;-68
2022/03/30 01:04:51;;;;;;;5.13;4.63;;;;;;;;;;5070528;28;20280;-69
2022/03/30 01:07:19;;;;;;;5.83;4.67;;;;;;;;;;5067572;28;20779;-68
2022/03/30 01:09:46;;;;;;;5.20;4.73;;;;;;;;;;5066534;28;20650;-69
2022/03/30 01:12:13;;;;;;;5.83;5.27;;;;;;;;;;5068854;28;20239;-67
2022/03/30 01:14:46;;;;;;;5.20;4.70;;;;;;;;;;5058311;28;20197;-68
2022/03/30 01:17:14;;;;;;;5.00;4.50;;;;;;;;;;5066150;28;20567;-67
2022/03/30 01:19:41;;;;;;;4.97;4.40;;;;;;;;;;5068453;28;20261;-68
2022/03/30 01:22:08;;;;;;;5.60;4.80;;;;;;;;;;5067104;28;20277;-68
2022/03/30 01:24:36;;;;;;;6.47;4.80;;;;;;;;;;5069033;28;20757;-68
2022/03/30 01:27:04;;;;;;;7.13;5.20;;;;;;;;;;5066749;28;20221;-69
2022/03/30 01:32:26;;;;;;;5.90;5.00;;;;;;;;;;5069466;28;20654;-68
2022/03/30 01:34:57;;;;;;;7.27;5.40;;;;;;;;;;5051563;28;20223;-68
2022/03/30 01:37:28;;;;;;;5.37;4.53;;;;;;;;;;5060467;28;20225;-68
2022/03/30 01:40:00;;;;;;;5.20;4.70;;;;;;;;;;5053133;28;20208;-68
2022/03/30 01:42:30;;;;;;;6.27;5.00;;;;;;;;;;5073335;28;20201;-69
2022/03/30 01:44:58;;;;;;;5.63;5.07;;;;;;;;;;5068135;28;20216;-68
2022/03/30 01:47:28;;;;;;;5.63;5.03;;;;;;;;;;5065402;28;20519;-67
2022/03/30 01:49:58;;;;;;;5.53;4.77;;;;;;;;;;5050419;28;20198;-68
2022/03/30 01:52:32;;;;;;;5.53;4.50;;;;;;;;;;5051253;28;20186;-68
2022/03/30 01:54:59;;;;;;;5.13;4.40;;;;;;;;;;5067186;28;20201;-68
2022/03/30 01:57:32;;;;;;;5.70;4.80;;;;;;;;;;5064745;28;20655;-68
2022/03/30 02:00:03;;;;;;;6.63;5.10;;;;;;;;;;5068163;28;20795;-69
2022/03/30 02:02:33;;;;;;;6.60;4.50;;;;;;;;;;5067584;28;20618;-67
2022/03/30 02:05:08;;;;;;;6.47;4.93;;;;;;;;;;5052986;28;20278;-68
2022/03/30 02:07:40;;;;;;;5.97;5.00;;;;;;;;;;5061342;28;20221;-68
2022/03/30 02:10:15;;;;;;;4.77;4.37;;;;;;;;;;5037227;28;20666;-68
2022/03/30 02:12:46;;;;;;;4.77;4.13;;;;;;;;;;5067974;28;20221;-68
2022/03/30 02:15:17;;;;;;;5.17;4.67;;;;;;;;;;5066362;28;20197;-68
2022/03/30 02:17:48;;;;;;;4.90;4.40;;;;;;;;;;5067998;28;20208;-68
2022/03/30 02:20:20;;;;;;;5.67;4.80;;;;;;;;;;5070576;28;20631;-69
2022/03/30 02:22:49;;;;;;;5.40;4.90;;;;;;;;;;5071575;28;20561;-68
2022/03/30 02:25:20;;;;;;;5.37;4.87;;;;;;;;;;5066800;28;20204;-69
2022/03/30 02:27:54;;;;;;;6.10;4.87;;;;;;;;;;5065334;28;20271;-68
2022/03/30 02:30:26;;;;;;;5.47;4.57;;;;;;;;;;5067249;28;20201;-67
2022/03/30 02:32:58;;;;;;;5.03;4.53;;;;;;;;;;5068011;28;20210;-68
2022/03/30 02:35:33;;;;;;;7.77;5.47;;;;;;;;;;5071998;28;20246;-69
2022/03/30 02:38:04;;;;;;;5.47;4.90;;;;;;;;;;5071673;28;20279;-68
2022/03/30 02:40:34;;;;;;;5.23;4.47;;;;;;;;;;5070548;28;20195;-67
2022/03/30 02:43:06;;;;;;;5.43;4.63;;;;;;;;;;5065000;28;20639;-68
2022/03/30 02:45:36;;;;;;;5.20;4.70;;;;;;;;;;5064870;28;20652;-69
2022/03/30 02:48:19;;;;;;;6.30;5.23;;;;;;;;;;5067662;28;20209;-69
2022/03/30 02:50:54;;;;;;;5.50;4.53;;;;;;;;;;5056916;28;20182;-68
2022/03/30 02:53:21;;;;;;;5.30;4.80;;;;;;;;;;5074896;28;20241;-69
2022/03/30 02:55:48;;;;;;;4.93;4.37;;;;;;;;;;5070307;28;20188;-69
2022/03/30 02:58:16;;;;;;;6.50;4.90;;;;;;;;;;5064395;28;20221;-69
2022/03/30 03:00:43;;;;;;;5.23;4.70;;;;;;;;;;5066527;28;20262;-68
2022/03/30 03:03:11;;;;;;;6.13;5.00;;;;;;;;;;5064480;28;20205;-68
2022/03/30 03:05:41;;;;;;;5.83;4.37;;;;;;;;;;5069207;28;20215;-69
2022/03/30 03:08:09;;;;;;;6.27;4.80;;;;;;;;;;5066911;28;20225;-68
2022/03/30 03:10:37;;;;;;;5.80;4.70;;;;;;;;;;5064313;28;20213;-68
2022/03/30 03:13:04;;;;;;;5.67;4.83;;;;;;;;;;5064145;28;20194;-68
2022/03/30 03:15:33;;;;;;;6.07;4.63;;;;;;;;;;5065786;28;20189;-67
2022/03/30 03:18:03;;;;;;;5.87;4.80;;;;;;;;;;5067421;28;20225;-68
2022/03/30 03:20:31;;;;;;;4.60;4.20;;;;;;;;;;5066466;28;20209;-68
2022/03/30 03:22:58;;;;;;;5.93;5.13;;;;;;;;;;5068858;28;20209;-69
2022/03/30 03:25:27;;;;;;;5.37;4.60;;;;;;;;;;5066474;28;20725;-68
2022/03/30 03:27:54;;;;;;;6.27;4.57;;;;;;;;;;5066130;28;20713;-68
2022/03/30 03:30:22;;;;;;;4.27;3.77;;;;;;;;;;5065942;28;20235;-69
2022/03/30 03:32:49;;;;;;;5.73;4.30;;;;;;;;;;5075749;28;20189;-68
2022/03/30 03:35:16;;;;;;;5.53;4.17;;;;;;;;;;5061862;28;20263;-68
2022/03/30 03:37:43;;;;;;;5.10;4.37;;;;;;;;;;5066864;28;20193;-69
2022/03/30 03:40:11;;;;;;;5.77;4.50;;;;;;;;;;5066230;28;20197;-68
2022/03/30 03:42:38;;;;;;;7.50;4.47;;;;;;;;;;5078720;28;20654;-69
2022/03/30 03:45:06;;;;;;;6.30;4.83;;;;;;;;;;5061666;28;20201;-69
2022/03/30 03:47:33;;;;;;;6.47;4.77;;;;;;;;;;5073488;28;20283;-68
2022/03/30 03:50:01;;;;;;;5.50;4.63;;;;;;;;;;5061011;28;20275;-68
2022/03/30 03:52:28;;;;;;;5.77;4.73;;;;;;;;;;5065928;28;20224;-68
2022/03/30 03:54:56;;;;;;;4.63;4.00;;;;;;;;;;5066252;28;20200;-69
2022/03/30 03:57:23;;;;;;;5.43;4.70;;;;;;;;;;5071326;28;20216;-68
2022/03/30 03:59:51;;;;;;;5.73;4.73;;;;;;;;;;5066148;28;20198;-68
2022/03/30 04:02:18;;;;;;;5.37;4.40;;;;;;;;;;5066219;28;20194;-68
2022/03/30 04:04:45;;;;;;;6.20;4.57;;;;;;;;;;5068393;28;20231;-69
2022/03/30 04:07:12;;;;;;;8.10;4.50;;;;;;;;;;5057883;28;20279;-70
2022/03/30 04:09:40;;;;;;;6.10;4.60;;;;;;;;;;5067946;28;20712;-69
2022/03/30 04:12:07;;;;;;;5.73;4.00;;;;;;;;;;5079489;28;20193;-68
2022/03/30 04:14:34;;;;;;;5.90;4.20;;;;;;;;;;5069272;28;20215;-70
2022/03/30 04:17:02;;;;;;;5.37;4.43;;;;;;;;;;5067153;28;20262;-68
2022/03/30 04:19:29;;;;;;;5.97;4.50;;;;;;;;;;5070143;28;20250;-70
2022/03/30 04:21:57;;;;;;;5.80;4.50;;;;;;;;;;5066347;28;20294;-69
2022/03/30 04:24:24;;;;;;;5.30;4.63;;;;;;;;;;5069962;28;20608;-69
2022/03/30 04:26:51;;;;;;;6.50;4.67;;;;;;;;;;5074593;28;20578;-69
2022/03/30 04:29:18;;;;;;;6.53;4.67;;;;;;;;;;5068877;28;20190;-68
2022/03/30 04:31:46;;;;;;;7.03;4.57;;;;;;;;;;5064464;28;20411;-68
2022/03/30 04:34:13;;;;;;;5.93;4.23;;;;;;;;;;5063908;28;20267;-68
2022/03/30 04:36:40;;;;;;;6.73;4.40;;;;;;;;;;5069490;28;20255;-68
2022/03/30 04:39:07;;;;;;;6.13;4.93;;;;;;;;;;5067550;28;20193;-69
2022/03/30 04:41:34;;;;;;;5.93;4.30;;;;;;;;;;5068637;28;20317;-68
2022/03/30 04:44:01;;;;;;;5.37;4.07;;;;;;;;;;5065657;28;20209;-69
2022/03/30 04:46:28;;;;;;;6.37;4.80;;;;;;;;;;5067423;28;20194;-67
2022/03/30 04:48:55;;;;;;;5.80;4.33;;;;;;;;;;5069074;28;20186;-68
2022/03/30 04:51:23;;;;;;;5.27;4.43;;;;;;;;;;5066489;28;20599;-68
2022/03/30 04:53:50;;;;;;;5.67;4.10;;;;;;;;;;5064069;28;20226;-68
2022/03/30 04:56:17;;;;;;;5.30;4.00;;;;;;;;;;5066529;28;20197;-69
2022/03/30 04:58:44;;;;;;;4.90;4.40;;;;;;;;;;5071170;28;20885;-68
2022/03/30 05:01:11;;;;;;;5.13;4.47;;;;;;;;;;5048936;28;20252;-68
2022/03/30 05:03:39;;;;;;;6.77;4.60;;;;;;;;;;5068610;28;20200;-69
2022/03/30 05:06:08;;;;;;;6.03;3.97;;;;;;;;;;5075191;28;20194;-69
2022/03/30 05:08:39;;;;;;;7.23;4.90;;;;;;;;;;5076978;28;20202;-69
2022/03/30 05:11:09;;;;;;;6.00;4.60;;;;;;;;;;5067954;28;20186;-69
2022/03/30 05:13:39;;;;;;;5.53;4.93;;;;;;;;;;5064980;28;20202;-69
2022/03/30 05:16:07;;;;;;;6.37;4.40;;;;;;;;;;5076255;28;20182;-68
2022/03/30 05:18:37;;;;;;;7.80;5.47;;;;;;;;;;5062268;28;20209;-69
2022/03/30 05:21:05;;;;;;;7.70;5.80;;;;;;;;;;5066729;28;20262;-68
2022/03/30 05:23:36;;;;;;;9.07;5.90;;;;;;;;;;5068762;28;20224;-70
2022/03/30 05:26:29;;;;;;;13.03;6.40;;;;;;;;;;5068678;28;20212;-69
2022/03/30 05:28:56;;;;;;;9.77;6.23;;;;;;;;;;5067177;28;20198;-69
2022/03/30 05:31:23;;;;;;;9.97;6.23;;;;;;;;;;5065105;28;20198;-69
2022/03/30 05:33:51;;;;;;;12.27;6.17;;;;;;;;;;5052153;28;20221;-69
2022/03/30 05:36:19;;;;;;;8.17;6.23;;;;;;;;;;5068084;28;20209;-69
2022/03/30 05:38:48;;;;;;;7.33;5.93;;;;;;;;;;5068546;28;20247;-68
2022/03/30 05:41:16;;;;;;;9.57;6.20;;;;;;;;;;5065570;28;20274;-68
2022/03/30 05:43:43;;;;;;;35.00;10.87;;;;;;;;;;5068450;28;20201;-69
2022/03/30 05:46:10;;;;;;;58.00;14.83;;;;;;;;;;5064707;28;20209;-68
2022/03/30 05:48:38;;;;;;;85.53;20.83;;;;;;;;;;5070795;28;20222;-68
2022/03/30 05:51:05;;;;;;;95.53;22.97;;;;;;;;;;5065369;28;20182;-68
2022/03/30 05:53:32;;;;;;;116.40;25.93;;;;;;;;;;5071339;28;20222;-69
2022/03/30 05:55:59;;;;;;;98.30;25.53;;;;;;;;;;5067467;28;20197;-68
2022/03/30 05:58:26;;;;;;;108.57;24.57;;;;;;;;;;5065743;28;20595;-69
2022/03/30 06:00:54;;;;;;;86.27;24.80;;;;;;;;;;5067418;28;20202;-69
2022/03/30 06:03:21;;;;;;;88.40;25.00;;;;;;;;;;5065239;28;20510;-69
2022/03/30 06:05:50;;;;;;;95.07;23.87;;;;;;;;;;5067881;28;20259;-69
2022/03/30 06:08:17;;;;;;;69.53;21.80;;;;;;;;;;5067009;28;20252;-69
2022/03/30 06:10:45;;;;;;;63.97;20.43;;;;;;;;;;5065433;28;20580;-69
2022/03/30 06:13:12;;;;;;;70.73;19.20;;;;;;;;;;5071456;28;20657;-69
2022/03/30 06:15:40;;;;;;;62.73;18.77;;;;;;;;;;5070289;28;20189;-69
2022/03/30 06:18:10;;;;;;;56.43;18.33;;;;;;;;;;5068063;28;20202;-70
2022/03/30 06:20:39;;;;;;;69.07;17.80;;;;;;;;;;5066939;28;20209;-69
2022/03/30 06:23:07;;;;;;;50.73;16.33;;;;;;;;;;5062938;28;20587;-69
2022/03/30 06:25:34;;;;;;;49.77;17.37;;;;;;;;;;5066912;28;20243;-69
2022/03/30 06:28:01;;;;;;;46.77;15.50;;;;;;;;;;5067204;28;20228;-69
2022/03/30 06:30:29;;;;;;;43.13;15.27;;;;;;;;;;5073575;28;20217;-68
2022/03/30 06:32:57;;;;;;;42.27;14.77;;;;;;;;;;5067716;28;20190;-70
2022/03/30 06:35:25;;;;;;;46.80;14.27;;;;;;;;;;5063181;28;20850;-69
2022/03/30 06:37:52;;;;;;;36.07;13.90;;;;;;;;;;5078017;28;20201;-69
2022/03/30 06:40:18;;;;;;;36.27;12.27;;;;;;;;;;5066921;28;20192;-69
2022/03/30 06:42:48;;;;;;;34.47;11.87;;;;;;;;;;5063770;28;20224;-69
2022/03/30 06:45:15;;;;;;;25.87;11.10;;;;;;;;;;5025505;28;20210;-69
2022/03/30 06:47:42;;;;;;;29.23;11.30;;;;;;;;;;5067071;28;20213;-69
2022/03/30 06:50:11;;;;;;;28.10;10.10;;;;;;;;;;5051020;28;20185;-69
2022/03/30 06:52:38;;;;;;;25.80;10.40;;;;;;;;;;5067262;28;20327;-69
2022/03/30 06:55:06;;;;;;;23.27;9.73;;;;;;;;;;5064643;28;20630;-69
2022/03/30 06:57:33;;;;;;;22.77;9.20;;;;;;;;;;5063884;28;20295;-69
2022/03/30 07:00:00;;;;;;;17.33;9.10;;;;;;;;;;5072756;28;20189;-70
2022/03/30 07:02:27;;;;;;;21.33;8.80;;;;;;;;;;5066425;28;20189;-69
2022/03/30 07:04:54;;;;;;;18.07;8.67;;;;;;;;;;5066023;28;20209;-69
2022/03/30 07:10:17;;;;;;;18.83;8.07;;;;;;;;;;5063688;28;20205;-69
2022/03/30 07:12:48;;;;;;;14.70;8.20;;;;;;;;;;5066078;28;20201;-69
2022/03/30 07:15:17;;;;;;;15.80;7.47;;;;;;;;;;5061451;28;20201;-68
2022/03/30 07:17:45;;;;;;;14.83;7.03;;;;;;;;;;5064406;28;20201;-68
2022/03/30 07:20:14;;;;;;;13.40;7.47;;;;;;;;;;5062633;28;20620;-69
2022/03/30 07:22:42;;;;;;;15.73;7.30;;;;;;;;;;5063928;28;20778;-69
2022/03/30 07:25:10;;;;;;;13.23;7.03;;;;;;;;;;5070132;28;20232;-68
2022/03/30 07:27:40;;;;;;;12.90;6.93;;;;;;;;;;5065218;28;20217;-69
2022/03/30 07:30:08;;;;;;;14.43;6.30;;;;;;;;;;5069107;28;20196;-69
2022/03/30 07:32:36;;;;;;;9.37;6.03;;;;;;;;;;5041636;28;20647;-70
2022/03/30 07:35:04;;;;;;;11.10;5.47;;;;;;;;;;5060228;28;20224;-69
2022/03/30 07:37:31;;;;;;;10.43;6.13;;;;;;;;;;5064689;28;20580;-69
2022/03/30 07:40:04;;;;;;;12.23;6.47;;;;;;;;;;5064597;28;20663;-70
2022/03/30 07:42:31;;;;;;;11.40;6.37;;;;;;;;;;5061303;28;20261;-70
2022/03/30 07:44:58;;;;;;;12.27;6.00;;;;;;;;;;5062588;28;20194;-69
2022/03/30 07:47:25;;;;;;;11.10;5.70;;;;;;;;;;5057827;28;20229;-69
2022/03/30 07:49:53;;;;;;;9.37;5.60;;;;;;;;;;5043858;28;20294;-69
2022/03/30 07:52:20;;;;;;;11.60;6.07;;;;;;;;;;5065585;28;20186;-70
2022/03/30 07:54:48;;;;;;;8.80;5.87;;;;;;;;;;5065468;28;20326;-69
2022/03/30 07:57:15;;;;;;;8.80;5.07;;;;;;;;;;5061160;28;20204;-68
2022/03/30 07:59:43;;;;;;;10.00;6.00;;;;;;;;;;5065722;28;20635;-68
2022/03/30 08:02:11;;;;;;;12.47;5.37;;;;;;;;;;5064839;28;20202;-70
2022/03/30 08:04:38;;;;;;;7.60;5.07;;;;;;;;;;5073112;28;20185;-69
2022/03/30 08:07:06;;;;;;;7.63;4.93;;;;;;;;;;5062495;28;20193;-69
2022/03/30 08:09:33;;;;;;;8.03;4.70;;;;;;;;;;5066555;28;20483;-69
2022/03/30 08:12:00;;;;;;;6.03;4.47;;;;;;;;;;5066364;28;20202;-69
2022/03/30 08:14:27;;;;;;;7.77;4.90;;;;;;;;;;5071010;28;20770;-69
2022/03/30 08:16:54;;;;;;;8.50;5.30;;;;;;;;;;5070932;28;20202;-68
2022/03/30 08:19:22;;;;;;;6.33;4.60;;;;;;;;;;5062676;28;20447;-69
2022/03/30 08:24:35;;;;;;;6.13;4.83;;;;;;;;;;5063981;28;20202;-69
2022/03/30 08:27:08;;;;;;;7.57;4.77;;;;;;;;;;5061315;28;20394;-68
2022/03/30 08:29:35;;;;;;;7.83;4.93;;;;;;;;;;5064298;28;20206;-69
2022/03/30 08:32:02;;;;;;;5.47;4.30;;;;;;;;;;5047251;28;20205;-70
2022/03/30 08:34:29;;;;;;;7.67;5.07;;;;;;;;;;5061239;28;20212;-69
2022/03/30 08:36:58;;;;;;;6.17;4.83;;;;;;;;;;5064763;28;20190;-69
2022/03/30 08:39:25;;;;;;;6.27;4.90;;;;;;;;;;5064691;28;20867;-68
2022/03/30 08:41:56;;;;;;;5.87;4.70;;;;;;;;;;5059763;28;20251;-70
2022/03/30 08:44:23;;;;;;;7.03;4.63;;;;;;;;;;5064619;28;20202;-68
2022/03/30 08:46:50;;;;;;;5.90;3.90;;;;;;;;;;5062074;28;20217;-69
2022/03/30 08:49:18;;;;;;;8.33;5.20;;;;;;;;;;5063120;28;20214;-69
2022/03/30 08:51:47;;;;;;;6.47;4.27;;;;;;;;;;5066413;28;20224;-69
2022/03/30 08:54:15;;;;;;;5.63;4.40;;;;;;;;;;5068923;28;20623;-70
2022/03/30 08:56:43;;;;;;;6.63;4.23;;;;;;;;;;5069204;28;20190;-69
2022/03/30 08:59:11;;;;;;;6.43;4.67;;;;;;;;;;5063543;28;20217;-70
2022/03/30 09:01:40;;;;;;;6.67;4.50;;;;;;;;;;5069133;28;20205;-70
2022/03/30 09:04:12;;;;;;;6.10;4.63;;;;;;;;;;5068347;28;20201;-70
2022/03/30 09:06:41;;;;;;;5.33;4.00;;;;;;;;;;5071347;28;20194;-69
2022/03/30 09:09:09;;;;;;;5.63;4.47;;;;;;;;;;5067101;28;20205;-70
2022/03/30 09:11:44;;;;;;;5.30;4.30;;;;;;;;;;5066152;28;20274;-70
2022/03/30 09:14:12;;;;;;;5.10;4.03;;;;;;;;;;5068384;28;20204;-69
2022/03/30 09:16:42;;;;;;;5.73;4.30;;;;;;;;;;5060382;28;20194;-70
2022/03/30 09:19:10;;;;;;;5.40;4.30;;;;;;;;;;5047725;28;20241;-69
2022/03/30 09:21:40;;;;;;;4.63;4.10;;;;;;;;;;5066577;28;20274;-69
2022/03/30 09:24:08;;;;;;;5.80;4.10;;;;;;;;;;5064686;28;20665;-70
2022/03/30 09:26:36;;;;;;;4.70;4.23;;;;;;;;;;5076811;28;20213;-70
2022/03/30 09:29:04;;;;;;;6.17;4.47;;;;;;;;;;5067076;28;20253;-69
2022/03/30 09:31:31;;;;;;;4.63;3.97;;;;;;;;;;5072250;28;20186;-69
2022/03/30 09:34:00;;;;;;;6.03;4.00;;;;;;;;;;5052058;28;20217;-70
2022/03/30 09:36:31;;;;;;;7.90;5.20;;;;;;;;;;5072886;28;20202;-70
2022/03/30 09:38:58;;;;;;;4.90;4.13;;;;;;;;;;5071415;28;20193;-70
2022/03/30 09:41:26;;;;;;;5.37;4.20;;;;;;;;;;5070318;28;20259;-69
2022/03/30 09:44:03;;;;;;;7.03;4.03;;;;;;;;;;5069156;28;20253;-69
2022/03/30 09:46:31;;;;;;;7.27;4.80;;;;;;;;;;5066458;28;20209;-69
2022/03/30 09:48:58;;;;;;;5.70;4.27;;;;;;;;;;5066892;28;20203;-70
2022/03/30 09:51:29;;;;;;;7.63;4.57;;;;;;;;;;5068260;28;20549;-69
2022/03/30 09:53:56;;;;;;;6.63;4.30;;;;;;;;;;5068436;28;20229;-69
2022/03/30 09:56:25;;;;;;;7.53;4.90;;;;;;;;;;5074943;28;20201;-69
2022/03/30 09:59:00;;;;;;;5.43;3.70;;;;;;;;;;5045676;28;20214;-68
2022/03/30 10:01:33;;;;;;;6.07;4.30;;;;;;;;;;5066194;28;20190;-69
2022/03/30 10:04:04;;;;;;;5.80;3.70;;;;;;;;;;5042941;28;20216;-68
2022/03/30 10:06:33;;;;;;;7.77;4.70;;;;;;;;;;5067457;28;20198;-69
2022/03/30 10:09:06;;;;;;;6.70;4.03;;;;;;;;;;5055100;28;20380;-68
2022/03/30 10:11:33;;;;;;;7.33;4.80;;;;;;;;;;5066917;28;20198;-69
2022/03/30 10:14:05;;;;;;;6.90;4.50;;;;;;;;;;5067058;28;20201;-69
2022/03/30 10:16:41;;;;;;;6.30;4.63;;;;;;;;;;5068250;28;20255;-69
2022/03/30 10:19:09;;;;;;;5.97;4.30;;;;;;;;;;5064183;28;20655;-69
2022/03/30 10:21:54;;;;;;;5.37;4.67;;;;;;;;;;5055466;28;20231;-69
2022/03/30 10:24:41;;;;;;;5.40;4.57;;;;;;;;;;5066003;28;20402;-69
2022/03/30 10:27:30;;;;;;;5.90;4.50;;;;;;;;;;5060612;28;20205;-70
2022/03/30 10:30:06;;;;;;;6.57;4.90;;;;;;;;;;5063941;28;20221;-70
2022/03/30 10:32:35;;;;;;;6.97;4.43;;;;;;;;;;5056303;28;20256;-70
2022/03/30 10:35:08;;;;;;;6.77;4.80;;;;;;;;;;5062313;28;20263;-70
2022/03/30 10:37:38;;;;;;;7.73;4.87;;;;;;;;;;5055144;28;20193;-69
2022/03/30 10:40:07;;;;;;;6.60;5.07;;;;;;;;;;5065474;28;20251;-69
2022/03/30 10:42:47;;;;;;;6.73;5.10;;;;;;;;;;5062129;28;20230;-69
2022/03/30 10:45:27;;;;;;;6.00;4.93;;;;;;;;;;5061144;28;20197;-69
2022/03/30 10:48:16;;;;;;;6.70;5.27;;;;;;;;;;5075169;28;20194;-69
2022/03/30 10:51:02;;;;;;;7.80;5.20;;;;;;;;;;5061111;28;20201;-68
2022/03/30 10:53:35;;;;;;;6.93;4.70;;;;;;;;;;5065991;28;20248;-68
2022/03/30 10:56:24;;;;;;;5.17;4.20;;;;;;;;;;5067239;28;20197;-70
2022/03/30 10:59:00;;;;;;;5.93;4.20;;;;;;;;;;5045567;28;20249;-69
2022/03/30 11:01:28;;;;;;;4.27;3.83;;;;;;;;;;5063342;28;20676;-69
2022/03/30 11:04:11;;;;;;;6.50;4.67;;;;;;;;;;5066008;28;20271;-69
2022/03/30 11:06:38;;;;;;;6.10;4.30;;;;;;;;;;5065748;28;20205;-68
2022/03/30 11:09:09;;;;;;;6.47;4.53;;;;;;;;;;5063255;28;20225;-68
2022/03/30 11:11:45;;;;;;;5.23;3.90;;;;;;;;;;5055290;28;20186;-68
2022/03/30 11:14:21;;;;;;;5.83;4.00;;;;;;;;;;5066042;28;20682;-69
2022/03/30 11:16:49;;;;;;;4.60;3.70;;;;;;;;;;5071004;28;20200;-68
2022/03/30 11:19:17;;;;;;;5.37;4.70;;;;;;;;;;5059650;28;20202;-69
2022/03/30 11:22:17;;;;;;;6.53;4.53;;;;;;;;;;5066700;28;20189;-69
2022/03/30 11:25:07;;;;;;;4.90;4.30;;;;;;;;;;5017619;28;20213;-70
2022/03/30 11:27:34;;;;;;;4.80;4.23;;;;;;;;;;5060075;28;20198;-69
2022/03/30 11:30:03;;;;;;;5.00;4.10;;;;;;;;;;5064993;28;20213;-69
2022/03/30 11:32:34;;;;;;;6.23;4.13;;;;;;;;;;5066403;28;20430;-69
2022/03/30 11:35:03;;;;;;;4.50;4.00;;;;;;;;;;5057329;28;20213;-70
2022/03/30 11:37:35;;;;;;;5.77;4.20;;;;;;;;;;5068009;28;20190;-68
2022/03/30 11:40:02;;;;;;;5.90;4.27;;;;;;;;;;5063393;28;20189;-69
2022/03/30 11:42:29;;;;;;;5.30;4.40;;;;;;;;;;5065462;28;20202;-69
2022/03/30 11:45:13;;;;;;;5.73;4.50;;;;;;;;;;5056410;28;20275;-69
2022/03/30 11:47:44;;;;;;;4.80;3.80;;;;;;;;;;5062454;28;20205;-69
2022/03/30 11:50:16;;;;;;;5.53;4.30;;;;;;;;;;5064810;28;20250;-68
2022/03/30 11:52:52;;;;;;;5.90;4.67;;;;;;;;;;5063717;28;20194;-69
2022/03/30 11:55:20;;;;;;;6.23;4.00;;;;;;;;;;5062492;28;20170;-68
2022/03/30 11:57:47;;;;;;;4.00;3.60;;;;;;;;;;5061686;28;20216;-67
2022/03/30 12:00:14;;;;;;;4.37;3.97;;;;;;;;;;5064937;28;20613;-69
2022/03/30 12:02:43;;;;;;;7.03;4.37;;;;;;;;;;5063967;28;20271;-69
2022/03/30 12:05:10;;;;;;;5.30;4.07;;;;;;;;;;5059935;28;20209;-67
2022/03/30 12:07:38;;;;;;;6.80;4.63;;;;;;;;;;5061592;28;20627;-68
2022/03/30 12:10:08;;;;;;;4.60;4.20;;;;;;;;;;5063157;28;20310;-67
2022/03/30 12:12:37;;;;;;;4.53;3.90;;;;;;;;;;5066030;28;20202;-69
2022/03/30 12:15:12;;;;;;;5.03;4.20;;;;;;;;;;5035246;28;20275;-67
2022/03/30 12:17:40;;;;;;;4.10;3.70;;;;;;;;;;5065029;28;20189;-67
2022/03/30 12:20:08;;;;;;;5.07;4.57;;;;;;;;;;5065632;28;20218;-68
2022/03/30 12:22:37;;;;;;;5.13;4.63;;;;;;;;;;5070885;28;20224;-68
2022/03/30 12:25:19;;;;;;;4.73;3.87;;;;;;;;;;5065763;28;20562;-68
2022/03/30 12:27:46;;;;;;;5.63;4.50;;;;;;;;;;5064908;28;20252;-70
2022/03/30 12:30:14;;;;;;;4.33;3.67;;;;;;;;;;5069385;28;20222;-69
2022/03/30 12:32:41;;;;;;;4.57;3.77;;;;;;;;;;5057196;28;20186;-69
2022/03/30 12:35:11;;;;;;;4.67;3.87;;;;;;;;;;5064121;28;20215;-69
2022/03/30 12:37:38;;;;;;;4.70;4.30;;;;;;;;;;5069162;28;20193;-69
2022/03/30 12:40:24;;;;;;;7.47;4.30;;;;;;;;;;5068215;28;20198;-68
2022/03/30 12:42:59;;;;;;;4.67;4.07;;;;;;;;;;5065938;28;20190;-68
2022/03/30 12:45:29;;;;;;;5.37;4.03;;;;;;;;;;5067568;28;20277;-68
2022/03/30 12:48:02;;;;;;;4.10;3.20;;;;;;;;;;5074937;28;20194;-68
2022/03/30 12:50:33;;;;;;;5.77;4.47;;;;;;;;;;5066446;28;20229;-69
2022/03/30 12:53:16;;;;;;;4.40;4.00;;;;;;;;;;5069170;28;20820;-68
2022/03/30 12:55:47;;;;;;;4.37;3.70;;;;;;;;;;5070193;28;20182;-69
2022/03/30 12:58:23;;;;;;;4.60;4.00;;;;;;;;;;5061168;28;20212;-69
2022/03/30 13:00:56;;;;;;;5.53;4.03;;;;;;;;;;5072340;28;20200;-70
2022/03/30 13:03:29;;;;;;;4.23;3.80;;;;;;;;;;5077178;28;20200;-69
2022/03/30 13:06:08;;;;;;;4.23;3.60;;;;;;;;;;5071435;28;20205;-67
2022/03/30 13:08:42;;;;;;;4.40;3.70;;;;;;;;;;5071022;28;20189;-67
2022/03/30 13:11:14;;;;;;;4.83;4.00;;;;;;;;;;5064733;28;20218;-67
2022/03/30 13:13:49;;;;;;;4.20;3.80;;;;;;;;;;5054306;28;20197;-68
2022/03/30 13:16:19;;;;;;;4.40;3.80;;;;;;;;;;5061683;28;20194;-68
2022/03/30 13:19:08;;;;;;;4.27;3.73;;;;;;;;;;5042063;28;20208;-67
2022/03/30 13:21:45;;;;;;;4.37;3.97;;;;;;;;;;5046662;28;20238;-68
2022/03/30 13:24:17;;;;;;;5.00;3.90;;;;;;;;;;5055783;28;20830;-67
2022/03/30 13:27:03;;;;;;;6.20;4.20;;;;;;;;;;5063743;28;20538;-68
2022/03/30 13:29:37;;;;;;;4.23;3.80;;;;;;;;;;5056369;28;20213;-69
2022/03/30 13:32:09;;;;;;;4.37;3.97;;;;;;;;;;5065062;28;20213;-68
2022/03/30 13:34:39;;;;;;;4.20;3.50;;;;;;;;;;5065999;28;20645;-67
2022/03/30 13:37:15;;;;;;;4.50;3.50;;;;;;;;;;5064846;28;20202;-67
2022/03/30 13:39:45;;;;;;;4.23;3.83;;;;;;;;;;5067663;28;20610;-68
2022/03/30 13:42:14;;;;;;;4.03;3.63;;;;;;;;;;5068504;28;20774;-69
2022/03/30 13:44:42;;;;;;;3.97;3.40;;;;;;;;;;5074002;28;20205;-69
2022/03/30 13:47:14;;;;;;;3.90;3.50;;;;;;;;;;5063488;28;20213;-68
2022/03/30 13:49:44;;;;;;;4.97;3.43;;;;;;;;;;5049677;28;20204;-69
2022/03/30 13:52:14;;;;;;;3.20;2.90;;;;;;;;;;5067691;28;20202;-69
2022/03/30 13:54:41;;;;;;;4.10;3.57;;;;;;;;;;5067756;28;20597;-69
2022/03/30 13:57:08;;;;;;;3.63;3.20;;;;;;;;;;5063725;28;20595;-68
2022/03/30 13:59:39;;;;;;;4.27;3.50;;;;;;;;;;5061976;28;20554;-68
2022/03/30 14:02:07;;;;;;;3.63;3.33;;;;;;;;;;5065945;28;20201;-68
2022/03/30 14:04:34;;;;;;;3.80;2.90;;;;;;;;;;5067430;28;20190;-68
2022/03/30 14:07:03;;;;;;;4.33;3.30;;;;;;;;;;5057502;28;20647;-69
2022/03/30 14:09:37;;;;;;;4.20;2.77;;;;;;;;;;5039098;28;20229;-69
2022/03/30 14:12:04;;;;;;;4.60;2.93;;;;;;;;;;5060215;28;20243;-69
2022/03/30 14:14:31;;;;;;;3.40;2.93;;;;;;;;;;5063499;28;20190;-69
2022/03/30 14:17:01;;;;;;;3.57;3.00;;;;;;;;;;5066767;28;20590;-69
2022/03/30 14:19:30;;;;;;;2.80;2.50;;;;;;;;;;5067173;28;20194;-68
2022/03/30 14:21:58;;;;;;;3.30;2.40;;;;;;;;;;5066169;28;20213;-68
2022/03/30 14:24:28;;;;;;;2.87;2.47;;;;;;;;;;5040091;28;20194;-68
2022/03/30 14:26:58;;;;;;;3.57;2.80;;;;;;;;;;5061684;28;20193;-68
2022/03/30 14:29:28;;;;;;;4.40;2.70;;;;;;;;;;5045254;28;20210;-67
2022/03/30 14:31:57;;;;;;;3.87;2.73;;;;;;;;;;5059050;28;20194;-68
2022/03/30 14:34:27;;;;;;;4.90;2.40;;;;;;;;;;5055884;28;20240;-70
2022/03/30 14:36:56;;;;;;;6.00;2.63;;;;;;;;;;5062292;28;20240;-67
2022/03/30 14:39:24;;;;;;;2.40;2.20;;;;;;;;;;5048828;28;20292;-68
2022/03/30 14:41:52;;;;;;;2.70;2.47;;;;;;;;;;5066484;28;20785;-68
2022/03/30 14:44:20;;;;;;;3.53;3.00;;;;;;;;;;5061519;28;20266;-68
2022/03/30 14:46:47;;;;;;;2.90;2.60;;;;;;;;;;5061067;28;20221;-68
2022/03/30 14:49:25;;;;;;;3.97;3.00;;;;;;;;;;5058757;28;20197;-67
2022/03/30 14:51:55;;;;;;;4.10;2.97;;;;;;;;;;5062276;28;20548;-69
2022/03/30 14:54:25;;;;;;;3.40;2.53;;;;;;;;;;5068170;28;20229;-69
2022/03/30 14:57:01;;;;;;;2.80;2.60;;;;;;;;;;5048335;28;20206;-68
2022/03/30 14:59:33;;;;;;;3.33;2.70;;;;;;;;;;5071034;28;20667;-69
2022/03/30 15:02:06;;;;;;;3.30;2.50;;;;;;;;;;5075073;28;20213;-69
2022/03/30 15:04:37;;;;;;;7.03;2.70;;;;;;;;;;5071154;28;20202;-69